North Lindenhurst, New York
Current Conditions -  °F | °C
As of 2:53 AM on Friday 31 Oct 2014 (Local Time) from KFRG Reporting Station
Overcast Overcast  
Wind Chill: 41°   Ceiling: 5000
Heat Index: 45°   Visibility: 10mi
Dew Point: 38°   Wind: 7mph
Humidity: 76%   Direction: 20°NNE
Pressure: 30.01"   Gusts: NA
Location:  40.6894°N, 73.3745°W
Report Text: KFRG 310653Z AUTO 02006KT 10SM OVC050 07/03 A3001 RMK AO2 SLP162 T00720033
Loading
Personal Weather Stations






























Interactive Weather Map
Tropical Storm Tracking
New forecast layout! Learn more

10-Day Weather Forecast

Advertisements
Track Severe Weather on mobile